sensor_id;sensor_type;location;lat;lon;timestamp;P1;durP1;ratioP1;P2;durP2;ratioP2
55720;SDS011;41626;53.098;6.168;2023-04-06T00:00:52;10.37;;;5.03;;
55720;SDS011;41626;53.098;6.168;2023-04-06T00:03:18;6.60;;;4.70;;
55720;SDS011;41626;53.098;6.168;2023-04-06T00:05:44;6.57;;;4.50;;
55720;SDS011;41626;53.098;6.168;2023-04-06T00:08:10;7.65;;;5.18;;
55720;SDS011;41626;53.098;6.168;2023-04-06T00:10:36;7.17;;;4.10;;
55720;SDS011;41626;53.098;6.168;2023-04-06T00:13:01;7.50;;;4.70;;
55720;SDS011;41626;53.098;6.168;2023-04-06T00:15:27;6.17;;;4.60;;
55720;SDS011;41626;53.098;6.168;2023-04-06T00:17:53;6.38;;;4.03;;
55720;SDS011;41626;53.098;6.168;2023-04-06T00:20:18;6.25;;;4.60;;
55720;SDS011;41626;53.098;6.168;2023-04-06T00:22:44;6.15;;;3.88;;
55720;SDS011;41626;53.098;6.168;2023-04-06T00:25:10;8.00;;;4.18;;
55720;SDS011;41626;53.098;6.168;2023-04-06T00:27:36;5.53;;;4.30;;
55720;SDS011;41626;53.098;6.168;2023-04-06T00:30:03;5.30;;;3.90;;
55720;SDS011;41626;53.098;6.168;2023-04-06T00:32:30;5.82;;;4.07;;
55720;SDS011;41626;53.098;6.168;2023-04-06T00:34:56;6.47;;;4.68;;
55720;SDS011;41626;53.098;6.168;2023-04-06T00:37:23;7.30;;;4.55;;
55720;SDS011;41626;53.098;6.168;2023-04-06T00:39:49;5.57;;;4.80;;
55720;SDS011;41626;53.098;6.168;2023-04-06T00:42:16;5.70;;;4.80;;
55720;SDS011;41626;53.098;6.168;2023-04-06T00:44:50;5.63;;;4.77;;
55720;SDS011;41626;53.098;6.168;2023-04-06T00:47:19;7.70;;;4.60;;
55720;SDS011;41626;53.098;6.168;2023-04-06T00:49:45;5.85;;;3.90;;
55720;SDS011;41626;53.098;6.168;2023-04-06T00:52:12;7.35;;;4.88;;
55720;SDS011;41626;53.098;6.168;2023-04-06T00:54:37;7.40;;;4.40;;
55720;SDS011;41626;53.098;6.168;2023-04-06T00:57:03;5.15;;;4.20;;
55720;SDS011;41626;53.098;6.168;2023-04-06T00:59:29;4.78;;;3.95;;
55720;SDS011;41626;53.098;6.168;2023-04-06T01:01:55;7.28;;;4.45;;
55720;SDS011;41626;53.098;6.168;2023-04-06T01:04:21;6.70;;;4.33;;
55720;SDS011;41626;53.098;6.168;2023-04-06T01:06:48;6.60;;;3.90;;
55720;SDS011;41626;53.098;6.168;2023-04-06T01:09:14;5.85;;;4.40;;
55720;SDS011;41626;53.098;6.168;2023-04-06T01:11:40;5.93;;;4.65;;
55720;SDS011;41626;53.098;6.168;2023-04-06T01:14:06;4.10;;;3.47;;
55720;SDS011;41626;53.098;6.168;2023-04-06T01:16:32;4.97;;;4.05;;
55720;SDS011;41626;53.098;6.168;2023-04-06T01:18:58;5.83;;;4.33;;
55720;SDS011;41626;53.098;6.168;2023-04-06T01:21:24;8.80;;;4.47;;
55720;SDS011;41626;53.098;6.168;2023-04-06T01:23:50;8.52;;;4.57;;
55720;SDS011;41626;53.098;6.168;2023-04-06T01:26:16;7.93;;;4.18;;
55720;SDS011;41626;53.098;6.168;2023-04-06T01:28:41;6.72;;;4.53;;
55720;SDS011;41626;53.098;6.168;2023-04-06T01:31:07;7.00;;;4.22;;
55720;SDS011;41626;53.098;6.168;2023-04-06T01:33:34;9.55;;;4.05;;
55720;SDS011;41626;53.098;6.168;2023-04-06T01:36:00;4.97;;;4.38;;
55720;SDS011;41626;53.098;6.168;2023-04-06T01:38:26;9.80;;;5.00;;
55720;SDS011;41626;53.098;6.168;2023-04-06T01:40:52;5.55;;;4.45;;
55720;SDS011;41626;53.098;6.168;2023-04-06T01:43:18;8.85;;;5.35;;
55720;SDS011;41626;53.098;6.168;2023-04-06T01:45:44;9.18;;;4.95;;
55720;SDS011;41626;53.098;6.168;2023-04-06T01:48:09;5.97;;;3.83;;
55720;SDS011;41626;53.098;6.168;2023-04-06T01:50:35;5.73;;;3.77;;
55720;SDS011;41626;53.098;6.168;2023-04-06T01:53:01;6.33;;;3.83;;
55720;SDS011;41626;53.098;6.168;2023-04-06T01:55:27;6.43;;;3.93;;
55720;SDS011;41626;53.098;6.168;2023-04-06T01:57:52;8.90;;;4.57;;
55720;SDS011;41626;53.098;6.168;2023-04-06T02:00:18;7.60;;;4.67;;
55720;SDS011;41626;53.098;6.168;2023-04-06T02:02:44;5.88;;;3.80;;
55720;SDS011;41626;53.098;6.168;2023-04-06T02:05:10;7.95;;;4.63;;
55720;SDS011;41626;53.098;6.168;2023-04-06T02:07:36;6.53;;;4.45;;
55720;SDS011;41626;53.098;6.168;2023-04-06T02:10:02;6.13;;;4.00;;
55720;SDS011;41626;53.098;6.168;2023-04-06T02:12:28;6.27;;;4.37;;
55720;SDS011;41626;53.098;6.168;2023-04-06T02:14:54;8.60;;;4.63;;
55720;SDS011;41626;53.098;6.168;2023-04-06T02:17:19;5.20;;;4.22;;
55720;SDS011;41626;53.098;6.168;2023-04-06T02:19:45;7.75;;;4.80;;
55720;SDS011;41626;53.098;6.168;2023-04-06T02:22:11;6.65;;;4.82;;
55720;SDS011;41626;53.098;6.168;2023-04-06T02:24:37;5.65;;;4.63;;
55720;SDS011;41626;53.098;6.168;2023-04-06T02:27:02;5.60;;;4.55;;
55720;SDS011;41626;53.098;6.168;2023-04-06T02:29:28;7.25;;;4.70;;
55720;SDS011;41626;53.098;6.168;2023-04-06T02:31:53;5.87;;;4.37;;
55720;SDS011;41626;53.098;6.168;2023-04-06T02:34:19;8.07;;;4.67;;
55720;SDS011;41626;53.098;6.168;2023-04-06T02:36:45;7.53;;;4.10;;
55720;SDS011;41626;53.098;6.168;2023-04-06T02:39:12;7.18;;;4.18;;
55720;SDS011;41626;53.098;6.168;2023-04-06T02:41:39;7.25;;;4.40;;
55720;SDS011;41626;53.098;6.168;2023-04-06T02:44:08;5.87;;;4.70;;
55720;SDS011;41626;53.098;6.168;2023-04-06T02:46:34;6.10;;;4.45;;
55720;SDS011;41626;53.098;6.168;2023-04-06T02:49:00;8.98;;;4.72;;
55720;SDS011;41626;53.098;6.168;2023-04-06T02:51:26;6.87;;;4.97;;
55720;SDS011;41626;53.098;6.168;2023-04-06T02:53:52;6.20;;;4.82;;
55720;SDS011;41626;53.098;6.168;2023-04-06T02:56:18;7.45;;;5.05;;
55720;SDS011;41626;53.098;6.168;2023-04-06T02:58:45;7.57;;;4.85;;
55720;SDS011;41626;53.098;6.168;2023-04-06T03:01:10;7.10;;;4.68;;
55720;SDS011;41626;53.098;6.168;2023-04-06T03:03:36;7.47;;;4.75;;
55720;SDS011;41626;53.098;6.168;2023-04-06T03:06:02;5.47;;;4.78;;
55720;SDS011;41626;53.098;6.168;2023-04-06T03:08:28;10.52;;;5.55;;
55720;SDS011;41626;53.098;6.168;2023-04-06T03:10:53;7.43;;;4.60;;
55720;SDS011;41626;53.098;6.168;2023-04-06T03:13:20;7.70;;;4.80;;
55720;SDS011;41626;53.098;6.168;2023-04-06T03:15:45;7.47;;;4.80;;
55720;SDS011;41626;53.098;6.168;2023-04-06T03:18:11;5.25;;;4.53;;
55720;SDS011;41626;53.098;6.168;2023-04-06T03:20:37;8.52;;;5.22;;
55720;SDS011;41626;53.098;6.168;2023-04-06T03:23:02;8.73;;;5.20;;
55720;SDS011;41626;53.098;6.168;2023-04-06T03:25:28;7.57;;;5.13;;
55720;SDS011;41626;53.098;6.168;2023-04-06T03:27:55;7.38;;;5.38;;
55720;SDS011;41626;53.098;6.168;2023-04-06T03:30:21;7.38;;;5.15;;
55720;SDS011;41626;53.098;6.168;2023-04-06T03:32:47;9.00;;;5.05;;
55720;SDS011;41626;53.098;6.168;2023-04-06T03:35:12;8.38;;;4.90;;
55720;SDS011;41626;53.098;6.168;2023-04-06T03:37:38;6.35;;;5.15;;
55720;SDS011;41626;53.098;6.168;2023-04-06T03:40:04;8.07;;;5.57;;
55720;SDS011;41626;53.098;6.168;2023-04-06T03:42:31;8.48;;;5.70;;
55720;SDS011;41626;53.098;6.168;2023-04-06T03:44:57;6.57;;;5.13;;
55720;SDS011;41626;53.098;6.168;2023-04-06T03:47:24;8.15;;;5.13;;
55720;SDS011;41626;53.098;6.168;2023-04-06T03:49:50;5.78;;;5.03;;
55720;SDS011;41626;53.098;6.168;2023-04-06T03:52:16;8.25;;;5.35;;
55720;SDS011;41626;53.098;6.168;2023-04-06T03:54:41;8.93;;;5.03;;
55720;SDS011;41626;53.098;6.168;2023-04-06T03:57:07;7.73;;;5.30;;
55720;SDS011;41626;53.098;6.168;2023-04-06T03:59:32;6.60;;;5.60;;
55720;SDS011;41626;53.098;6.168;2023-04-06T04:01:58;9.37;;;5.87;;
55720;SDS011;41626;53.098;6.168;2023-04-06T04:04:24;7.97;;;5.63;;
55720;SDS011;41626;53.098;6.168;2023-04-06T04:06:50;9.87;;;6.40;;
55720;SDS011;41626;53.098;6.168;2023-04-06T04:09:15;8.30;;;5.90;;
55720;SDS011;41626;53.098;6.168;2023-04-06T04:11:41;8.53;;;6.40;;
55720;SDS011;41626;53.098;6.168;2023-04-06T04:14:07;7.72;;;5.65;;
55720;SDS011;41626;53.098;6.168;2023-04-06T04:16:32;11.52;;;6.55;;
55720;SDS011;41626;53.098;6.168;2023-04-06T04:18:58;5.95;;;5.43;;
55720;SDS011;41626;53.098;6.168;2023-04-06T04:21:24;8.18;;;6.43;;
55720;SDS011;41626;53.098;6.168;2023-04-06T04:23:50;8.77;;;6.00;;
55720;SDS011;41626;53.098;6.168;2023-04-06T04:26:17;8.70;;;6.75;;
55720;SDS011;41626;53.098;6.168;2023-04-06T04:28:43;8.43;;;6.47;;
55720;SDS011;41626;53.098;6.168;2023-04-06T04:31:09;9.52;;;7.25;;
55720;SDS011;41626;53.098;6.168;2023-04-06T04:33:35;10.35;;;6.18;;
55720;SDS011;41626;53.098;6.168;2023-04-06T04:36:01;6.82;;;5.75;;
55720;SDS011;41626;53.098;6.168;2023-04-06T04:38:26;8.47;;;6.80;;
55720;SDS011;41626;53.098;6.168;2023-04-06T04:40:52;10.03;;;6.77;;
55720;SDS011;41626;53.098;6.168;2023-04-06T04:43:18;8.17;;;6.80;;
55720;SDS011;41626;53.098;6.168;2023-04-06T04:45:43;7.68;;;6.40;;
55720;SDS011;41626;53.098;6.168;2023-04-06T04:48:09;8.50;;;6.90;;
55720;SDS011;41626;53.098;6.168;2023-04-06T04:50:35;9.27;;;6.93;;
55720;SDS011;41626;53.098;6.168;2023-04-06T04:53:01;7.78;;;6.10;;
55720;SDS011;41626;53.098;6.168;2023-04-06T04:55:27;9.33;;;7.17;;
55720;SDS011;41626;53.098;6.168;2023-04-06T04:57:54;9.48;;;7.18;;
55720;SDS011;41626;53.098;6.168;2023-04-06T05:00:19;10.90;;;6.75;;
55720;SDS011;41626;53.098;6.168;2023-04-06T05:02:46;9.23;;;6.10;;
55720;SDS011;41626;53.098;6.168;2023-04-06T05:05:11;8.33;;;6.67;;
55720;SDS011;41626;53.098;6.168;2023-04-06T05:07:37;10.23;;;6.97;;
55720;SDS011;41626;53.098;6.168;2023-04-06T05:10:03;10.20;;;6.78;;
55720;SDS011;41626;53.098;6.168;2023-04-06T05:12:28;8.70;;;6.07;;
55720;SDS011;41626;53.098;6.168;2023-04-06T05:14:54;8.45;;;7.03;;
55720;SDS011;41626;53.098;6.168;2023-04-06T05:17:20;8.00;;;6.73;;
55720;SDS011;41626;53.098;6.168;2023-04-06T05:19:45;10.63;;;6.30;;
55720;SDS011;41626;53.098;6.168;2023-04-06T05:22:11;10.57;;;6.80;;
55720;SDS011;41626;53.098;6.168;2023-04-06T05:24:39;10.00;;;6.80;;
55720;SDS011;41626;53.098;6.168;2023-04-06T05:27:05;9.90;;;7.20;;
55720;SDS011;41626;53.098;6.168;2023-04-06T05:29:31;9.23;;;7.45;;
55720;SDS011;41626;53.098;6.168;2023-04-06T05:31:56;8.70;;;6.57;;
55720;SDS011;41626;53.098;6.168;2023-04-06T05:34:22;9.77;;;6.87;;
55720;SDS011;41626;53.098;6.168;2023-04-06T05:36:48;9.33;;;5.97;;
55720;SDS011;41626;53.098;6.168;2023-04-06T05:39:13;10.40;;;6.87;;
55720;SDS011;41626;53.098;6.168;2023-04-06T05:41:39;8.38;;;6.50;;
55720;SDS011;41626;53.098;6.168;2023-04-06T05:44:05;8.75;;;6.47;;
55720;SDS011;41626;53.098;6.168;2023-04-06T05:46:31;8.45;;;7.00;;
55720;SDS011;41626;53.098;6.168;2023-04-06T05:48:56;9.43;;;7.20;;
55720;SDS011;41626;53.098;6.168;2023-04-06T05:51:22;8.15;;;6.75;;
55720;SDS011;41626;53.098;6.168;2023-04-06T05:53:48;7.37;;;6.57;;
55720;SDS011;41626;53.098;6.168;2023-04-06T05:56:13;9.63;;;6.63;;
55720;SDS011;41626;53.098;6.168;2023-04-06T05:58:39;8.67;;;6.83;;
55720;SDS011;41626;53.098;6.168;2023-04-06T06:01:05;13.33;;;9.73;;
55720;SDS011;41626;53.098;6.168;2023-04-06T06:03:30;12.70;;;9.23;;
55720;SDS011;41626;53.098;6.168;2023-04-06T06:06:00;11.30;;;8.87;;
55720;SDS011;41626;53.098;6.168;2023-04-06T06:08:26;13.27;;;9.27;;
55720;SDS011;41626;53.098;6.168;2023-04-06T06:10:52;16.60;;;9.95;;
55720;SDS011;41626;53.098;6.168;2023-04-06T06:13:18;23.38;;;11.65;;
55720;SDS011;41626;53.098;6.168;2023-04-06T06:15:44;30.80;;;13.15;;
55720;SDS011;41626;53.098;6.168;2023-04-06T06:18:09;24.05;;;13.65;;
55720;SDS011;41626;53.098;6.168;2023-04-06T06:20:35;33.50;;;18.55;;
55720;SDS011;41626;53.098;6.168;2023-04-06T06:23:01;31.75;;;18.77;;
55720;SDS011;41626;53.098;6.168;2023-04-06T06:25:26;34.08;;;17.38;;
55720;SDS011;41626;53.098;6.168;2023-04-06T06:27:52;22.98;;;13.15;;
55720;SDS011;41626;53.098;6.168;2023-04-06T06:30:18;25.88;;;15.80;;
55720;SDS011;41626;53.098;6.168;2023-04-06T06:32:43;30.73;;;12.77;;
55720;SDS011;41626;53.098;6.168;2023-04-06T06:35:09;17.92;;;10.05;;
55720;SDS011;41626;53.098;6.168;2023-04-06T06:37:35;17.63;;;11.33;;
55720;SDS011;41626;53.098;6.168;2023-04-06T06:40:00;17.10;;;9.13;;
55720;SDS011;41626;53.098;6.168;2023-04-06T06:42:26;13.30;;;9.53;;
55720;SDS011;41626;53.098;6.168;2023-04-06T06:44:52;15.53;;;9.20;;
55720;SDS011;41626;53.098;6.168;2023-04-06T06:47:19;11.27;;;7.95;;
55720;SDS011;41626;53.098;6.168;2023-04-06T06:49:45;10.05;;;7.70;;
55720;SDS011;41626;53.098;6.168;2023-04-06T06:52:10;14.65;;;8.70;;
55720;SDS011;41626;53.098;6.168;2023-04-06T06:54:36;11.77;;;8.20;;
55720;SDS011;41626;53.098;6.168;2023-04-06T06:57:01;14.48;;;9.40;;
55720;SDS011;41626;53.098;6.168;2023-04-06T06:59:27;10.35;;;8.35;;
55720;SDS011;41626;53.098;6.168;2023-04-06T07:01:53;10.50;;;8.30;;
55720;SDS011;41626;53.098;6.168;2023-04-06T07:04:18;10.85;;;8.65;;
55720;SDS011;41626;53.098;6.168;2023-04-06T07:06:44;10.98;;;8.20;;
55720;SDS011;41626;53.098;6.168;2023-04-06T07:09:10;9.98;;;7.55;;
55720;SDS011;41626;53.098;6.168;2023-04-06T07:11:36;9.48;;;7.75;;
55720;SDS011;41626;53.098;6.168;2023-04-06T07:14:02;11.95;;;7.97;;
55720;SDS011;41626;53.098;6.168;2023-04-06T07:16:27;10.80;;;8.23;;
55720;SDS011;41626;53.098;6.168;2023-04-06T07:18:53;12.60;;;7.73;;
55720;SDS011;41626;53.098;6.168;2023-04-06T07:21:18;12.13;;;8.00;;
55720;SDS011;41626;53.098;6.168;2023-04-06T07:23:44;10.40;;;8.52;;
55720;SDS011;41626;53.098;6.168;2023-04-06T07:26:10;10.90;;;8.15;;
55720;SDS011;41626;53.098;6.168;2023-04-06T07:28:35;9.48;;;7.72;;
55720;SDS011;41626;53.098;6.168;2023-04-06T07:31:01;10.77;;;7.82;;
55720;SDS011;41626;53.098;6.168;2023-04-06T07:33:26;10.60;;;7.95;;
55720;SDS011;41626;53.098;6.168;2023-04-06T07:35:55;10.52;;;7.95;;
55720;SDS011;41626;53.098;6.168;2023-04-06T07:38:21;15.27;;;8.63;;
55720;SDS011;41626;53.098;6.168;2023-04-06T07:40:47;10.50;;;7.73;;
55720;SDS011;41626;53.098;6.168;2023-04-06T07:43:13;12.13;;;7.80;;
55720;SDS011;41626;53.098;6.168;2023-04-06T07:45:38;10.73;;;7.83;;
55720;SDS011;41626;53.098;6.168;2023-04-06T07:48:04;11.37;;;8.50;;
55720;SDS011;41626;53.098;6.168;2023-04-06T07:50:30;10.67;;;7.87;;
55720;SDS011;41626;53.098;6.168;2023-04-06T07:52:56;10.33;;;8.20;;
55720;SDS011;41626;53.098;6.168;2023-04-06T07:55:22;11.82;;;8.45;;
55720;SDS011;41626;53.098;6.168;2023-04-06T07:57:48;10.40;;;7.63;;
55720;SDS011;41626;53.098;6.168;2023-04-06T08:00:14;10.80;;;7.37;;
55720;SDS011;41626;53.098;6.168;2023-04-06T08:02:40;8.95;;;7.70;;
55720;SDS011;41626;53.098;6.168;2023-04-06T08:05:05;10.13;;;7.90;;
55720;SDS011;41626;53.098;6.168;2023-04-06T08:07:32;9.48;;;8.38;;
55720;SDS011;41626;53.098;6.168;2023-04-06T08:09:57;10.40;;;8.83;;
55720;SDS011;41626;53.098;6.168;2023-04-06T08:12:23;9.40;;;7.93;;
55720;SDS011;41626;53.098;6.168;2023-04-06T08:14:49;11.37;;;9.43;;
55720;SDS011;41626;53.098;6.168;2023-04-06T08:17:14;10.52;;;7.88;;
55720;SDS011;41626;53.098;6.168;2023-04-06T08:19:42;10.82;;;8.40;;
55720;SDS011;41626;53.098;6.168;2023-04-06T08:22:09;10.45;;;8.20;;
55720;SDS011;41626;53.098;6.168;2023-04-06T08:24:35;11.18;;;7.82;;
55720;SDS011;41626;53.098;6.168;2023-04-06T08:27:01;12.13;;;8.52;;
55720;SDS011;41626;53.098;6.168;2023-04-06T08:29:27;11.15;;;8.57;;
55720;SDS011;41626;53.098;6.168;2023-04-06T08:31:52;11.57;;;8.45;;
55720;SDS011;41626;53.098;6.168;2023-04-06T08:34:18;9.97;;;7.90;;
55720;SDS011;41626;53.098;6.168;2023-04-06T08:36:44;13.35;;;8.63;;
55720;SDS011;41626;53.098;6.168;2023-04-06T08:39:10;10.95;;;8.75;;
55720;SDS011;41626;53.098;6.168;2023-04-06T08:41:36;14.77;;;11.52;;
55720;SDS011;41626;53.098;6.168;2023-04-06T08:44:02;14.05;;;9.32;;
55720;SDS011;41626;53.098;6.168;2023-04-06T08:46:28;11.55;;;9.20;;
55720;SDS011;41626;53.098;6.168;2023-04-06T08:48:58;11.07;;;8.98;;
55720;SDS011;41626;53.098;6.168;2023-04-06T08:51:28;11.20;;;9.90;;
55720;SDS011;41626;53.098;6.168;2023-04-06T08:53:58;12.17;;;10.07;;
55720;SDS011;41626;53.098;6.168;2023-04-06T08:56:25;10.85;;;8.95;;
55720;SDS011;41626;53.098;6.168;2023-04-06T08:58:53;12.63;;;9.93;;
55720;SDS011;41626;53.098;6.168;2023-04-06T09:01:28;12.30;;;9.77;;
55720;SDS011;41626;53.098;6.168;2023-04-06T09:03:56;13.02;;;10.75;;
55720;SDS011;41626;53.098;6.168;2023-04-06T09:06:25;12.95;;;10.10;;
55720;SDS011;41626;53.098;6.168;2023-04-06T09:08:55;14.27;;;10.95;;
55720;SDS011;41626;53.098;6.168;2023-04-06T09:11:22;15.95;;;11.18;;
55720;SDS011;41626;53.098;6.168;2023-04-06T09:13:48;13.30;;;11.10;;
55720;SDS011;41626;53.098;6.168;2023-04-06T09:16:16;15.82;;;12.13;;
55720;SDS011;41626;53.098;6.168;2023-04-06T09:18:42;14.60;;;11.75;;
55720;SDS011;41626;53.098;6.168;2023-04-06T09:21:08;17.42;;;13.30;;
55720;SDS011;41626;53.098;6.168;2023-04-06T09:23:34;16.30;;;12.68;;
55720;SDS011;41626;53.098;6.168;2023-04-06T09:28:55;16.52;;;12.45;;
55720;SDS011;41626;53.098;6.168;2023-04-06T09:31:23;17.48;;;14.45;;
55720;SDS011;41626;53.098;6.168;2023-04-06T09:33:50;17.87;;;13.40;;
55720;SDS011;41626;53.098;6.168;2023-04-06T09:36:19;17.92;;;13.85;;
55720;SDS011;41626;53.098;6.168;2023-04-06T09:38:58;16.02;;;13.68;;
55720;SDS011;41626;53.098;6.168;2023-04-06T09:41:25;18.35;;;14.10;;
55720;SDS011;41626;53.098;6.168;2023-04-06T09:44:02;17.60;;;13.55;;
55720;SDS011;41626;53.098;6.168;2023-04-06T09:46:31;19.95;;;14.25;;
55720;SDS011;41626;53.098;6.168;2023-04-06T09:49:08;20.87;;;13.73;;
55720;SDS011;41626;53.098;6.168;2023-04-06T09:54:03;20.52;;;15.18;;
55720;SDS011;41626;53.098;6.168;2023-04-06T09:56:31;20.15;;;15.20;;
55720;SDS011;41626;53.098;6.168;2023-04-06T09:59:05;18.08;;;15.13;;
55720;SDS011;41626;53.098;6.168;2023-04-06T10:01:37;18.98;;;14.18;;
55720;SDS011;41626;53.098;6.168;2023-04-06T10:06:57;18.75;;;15.23;;
55720;SDS011;41626;53.098;6.168;2023-04-06T10:09:25;18.50;;;15.38;;
55720;SDS011;41626;53.098;6.168;2023-04-06T10:12:01;22.42;;;15.93;;
55720;SDS011;41626;53.098;6.168;2023-04-06T10:14:33;21.70;;;15.60;;
55720;SDS011;41626;53.098;6.168;2023-04-06T10:17:05;25.80;;;17.10;;
55720;SDS011;41626;53.098;6.168;2023-04-06T10:20:18;20.65;;;16.20;;
55720;SDS011;41626;53.098;6.168;2023-04-06T10:25:15;21.40;;;16.85;;
55720;SDS011;41626;53.098;6.168;2023-04-06T10:27:41;20.23;;;16.70;;
55720;SDS011;41626;53.098;6.168;2023-04-06T10:30:07;21.57;;;16.27;;
55720;SDS011;41626;53.098;6.168;2023-04-06T10:32:33;19.60;;;16.77;;
55720;SDS011;41626;53.098;6.168;2023-04-06T10:35:06;21.05;;;17.45;;
55720;SDS011;41626;53.098;6.168;2023-04-06T10:37:45;20.95;;;16.48;;
55720;SDS011;41626;53.098;6.168;2023-04-06T10:40:19;21.05;;;17.75;;
55720;SDS011;41626;53.098;6.168;2023-04-06T10:42:46;21.38;;;16.30;;
55720;SDS011;41626;53.098;6.168;2023-04-06T10:45:22;21.80;;;16.77;;
55720;SDS011;41626;53.098;6.168;2023-04-06T10:47:49;24.02;;;19.27;;
55720;SDS011;41626;53.098;6.168;2023-04-06T10:50:17;32.20;;;17.52;;
55720;SDS011;41626;53.098;6.168;2023-04-06T10:52:46;26.38;;;17.90;;
55720;SDS011;41626;53.098;6.168;2023-04-06T10:55:15;23.67;;;17.50;;
55720;SDS011;41626;53.098;6.168;2023-04-06T10:57:41;21.02;;;17.17;;
55720;SDS011;41626;53.098;6.168;2023-04-06T11:00:07;21.43;;;18.47;;
55720;SDS011;41626;53.098;6.168;2023-04-06T11:02:34;23.25;;;17.60;;
55720;SDS011;41626;53.098;6.168;2023-04-06T11:05:02;24.10;;;18.98;;
55720;SDS011;41626;53.098;6.168;2023-04-06T11:07:28;22.85;;;18.90;;
55720;SDS011;41626;53.098;6.168;2023-04-06T11:09:55;26.58;;;19.48;;
55720;SDS011;41626;53.098;6.168;2023-04-06T11:12:25;26.25;;;17.55;;
55720;SDS011;41626;53.098;6.168;2023-04-06T11:14:56;23.25;;;18.45;;
55720;SDS011;41626;53.098;6.168;2023-04-06T11:17:35;22.55;;;18.48;;
55720;SDS011;41626;53.098;6.168;2023-04-06T11:20:02;21.63;;;17.52;;
55720;SDS011;41626;53.098;6.168;2023-04-06T11:22:30;22.95;;;18.17;;
55720;SDS011;41626;53.098;6.168;2023-04-06T11:25:05;22.60;;;18.65;;
55720;SDS011;41626;53.098;6.168;2023-04-06T11:27:33;20.90;;;18.17;;
55720;SDS011;41626;53.098;6.168;2023-04-06T11:29:59;23.52;;;19.13;;
55720;SDS011;41626;53.098;6.168;2023-04-06T11:32:26;24.27;;;19.13;;
55720;SDS011;41626;53.098;6.168;2023-04-06T11:34:51;23.33;;;18.47;;
55720;SDS011;41626;53.098;6.168;2023-04-06T11:37:17;22.67;;;19.17;;
55720;SDS011;41626;53.098;6.168;2023-04-06T11:42:12;20.90;;;17.15;;
55720;SDS011;41626;53.098;6.168;2023-04-06T11:44:45;20.00;;;17.23;;
55720;SDS011;41626;53.098;6.168;2023-04-06T11:47:11;26.92;;;18.42;;
55720;SDS011;41626;53.098;6.168;2023-04-06T11:49:38;22.75;;;17.30;;
55720;SDS011;41626;53.098;6.168;2023-04-06T11:54:41;24.70;;;18.80;;
55720;SDS011;41626;53.098;6.168;2023-04-06T11:57:07;24.70;;;19.33;;
55720;SDS011;41626;53.098;6.168;2023-04-06T11:59:33;27.60;;;19.15;;
55720;SDS011;41626;53.098;6.168;2023-04-06T12:02:03;24.73;;;18.95;;
55720;SDS011;41626;53.098;6.168;2023-04-06T12:04:29;22.38;;;18.52;;
55720;SDS011;41626;53.098;6.168;2023-04-06T12:06:55;25.35;;;19.88;;
55720;SDS011;41626;53.098;6.168;2023-04-06T12:09:21;24.48;;;19.90;;
55720;SDS011;41626;53.098;6.168;2023-04-06T12:11:47;25.70;;;19.30;;
55720;SDS011;41626;53.098;6.168;2023-04-06T12:14:12;23.55;;;19.27;;
55720;SDS011;41626;53.098;6.168;2023-04-06T12:16:38;25.23;;;19.27;;
55720;SDS011;41626;53.098;6.168;2023-04-06T12:19:05;24.95;;;20.05;;
55720;SDS011;41626;53.098;6.168;2023-04-06T12:21:32;23.20;;;18.60;;
55720;SDS011;41626;53.098;6.168;2023-04-06T12:23:59;29.02;;;20.67;;
55720;SDS011;41626;53.098;6.168;2023-04-06T12:26:25;22.40;;;18.15;;
55720;SDS011;41626;53.098;6.168;2023-04-06T12:28:51;20.55;;;16.45;;
55720;SDS011;41626;53.098;6.168;2023-04-06T12:31:17;20.45;;;17.05;;
55720;SDS011;41626;53.098;6.168;2023-04-06T12:33:48;22.92;;;16.05;;
55720;SDS011;41626;53.098;6.168;2023-04-06T12:36:15;23.52;;;19.42;;
55720;SDS011;41626;53.098;6.168;2023-04-06T12:38:44;21.87;;;17.90;;
55720;SDS011;41626;53.098;6.168;2023-04-06T12:41:11;21.77;;;17.03;;
55720;SDS011;41626;53.098;6.168;2023-04-06T12:43:36;20.23;;;17.45;;
55720;SDS011;41626;53.098;6.168;2023-04-06T12:46:02;20.73;;;17.45;;
55720;SDS011;41626;53.098;6.168;2023-04-06T12:48:28;18.15;;;15.30;;
55720;SDS011;41626;53.098;6.168;2023-04-06T12:50:58;21.38;;;17.55;;
55720;SDS011;41626;53.098;6.168;2023-04-06T12:53:24;23.38;;;18.10;;
55720;SDS011;41626;53.098;6.168;2023-04-06T12:55:51;10.90;;;9.43;;
55720;SDS011;41626;53.098;6.168;2023-04-06T12:58:16;15.00;;;12.23;;
55720;SDS011;41626;53.098;6.168;2023-04-06T13:00:42;18.88;;;15.68;;
55720;SDS011;41626;53.098;6.168;2023-04-06T13:03:08;19.53;;;17.20;;
55720;SDS011;41626;53.098;6.168;2023-04-06T13:05:34;18.70;;;16.47;;
55720;SDS011;41626;53.098;6.168;2023-04-06T13:08:00;22.20;;;17.33;;
55720;SDS011;41626;53.098;6.168;2023-04-06T13:10:26;20.25;;;16.35;;
55720;SDS011;41626;53.098;6.168;2023-04-06T13:12:51;17.97;;;13.97;;
55720;SDS011;41626;53.098;6.168;2023-04-06T13:15:17;14.13;;;11.80;;
55720;SDS011;41626;53.098;6.168;2023-04-06T13:17:43;12.85;;;11.10;;
55720;SDS011;41626;53.098;6.168;2023-04-06T13:20:09;14.32;;;11.80;;
55720;SDS011;41626;53.098;6.168;2023-04-06T13:22:35;15.47;;;13.53;;
55720;SDS011;41626;53.098;6.168;2023-04-06T13:25:01;15.85;;;12.65;;
55720;SDS011;41626;53.098;6.168;2023-04-06T13:27:27;17.17;;;14.27;;
55720;SDS011;41626;53.098;6.168;2023-04-06T13:29:53;15.53;;;12.53;;
55720;SDS011;41626;53.098;6.168;2023-04-06T13:32:19;14.90;;;11.98;;
55720;SDS011;41626;53.098;6.168;2023-04-06T13:34:45;14.15;;;12.25;;
55720;SDS011;41626;53.098;6.168;2023-04-06T13:37:13;15.23;;;12.15;;
55720;SDS011;41626;53.098;6.168;2023-04-06T13:39:38;16.90;;;12.85;;
55720;SDS011;41626;53.098;6.168;2023-04-06T13:42:04;13.95;;;11.82;;
55720;SDS011;41626;53.098;6.168;2023-04-06T13:44:30;15.40;;;12.18;;
55720;SDS011;41626;53.098;6.168;2023-04-06T13:46:56;11.60;;;9.43;;
55720;SDS011;41626;53.098;6.168;2023-04-06T13:49:22;9.00;;;6.93;;
55720;SDS011;41626;53.098;6.168;2023-04-06T13:51:47;11.63;;;8.43;;
55720;SDS011;41626;53.098;6.168;2023-04-06T13:54:13;12.40;;;8.57;;
55720;SDS011;41626;53.098;6.168;2023-04-06T13:56:39;8.75;;;7.28;;
55720;SDS011;41626;53.098;6.168;2023-04-06T13:59:04;9.80;;;7.20;;
55720;SDS011;41626;53.098;6.168;2023-04-06T14:01:30;10.50;;;7.13;;
55720;SDS011;41626;53.098;6.168;2023-04-06T14:03:56;8.73;;;7.83;;
55720;SDS011;41626;53.098;6.168;2023-04-06T14:06:21;9.40;;;8.40;;
55720;SDS011;41626;53.098;6.168;2023-04-06T14:08:47;10.70;;;9.07;;
55720;SDS011;41626;53.098;6.168;2023-04-06T14:11:13;10.20;;;9.10;;
55720;SDS011;41626;53.098;6.168;2023-04-06T14:13:39;11.35;;;9.55;;
55720;SDS011;41626;53.098;6.168;2023-04-06T14:16:05;11.43;;;10.32;;
55720;SDS011;41626;53.098;6.168;2023-04-06T14:18:32;12.85;;;11.05;;
55720;SDS011;41626;53.098;6.168;2023-04-06T14:20:59;13.35;;;11.80;;
55720;SDS011;41626;53.098;6.168;2023-04-06T14:23:26;14.32;;;11.60;;
55720;SDS011;41626;53.098;6.168;2023-04-06T14:26:02;14.73;;;10.98;;
55720;SDS011;41626;53.098;6.168;2023-04-06T14:28:29;14.85;;;12.10;;
55720;SDS011;41626;53.098;6.168;2023-04-06T14:30:56;13.88;;;12.25;;
55720;SDS011;41626;53.098;6.168;2023-04-06T14:33:21;14.90;;;13.10;;
55720;SDS011;41626;53.098;6.168;2023-04-06T14:35:47;14.15;;;12.50;;
55720;SDS011;41626;53.098;6.168;2023-04-06T14:38:13;16.23;;;13.02;;
55720;SDS011;41626;53.098;6.168;2023-04-06T14:40:38;16.27;;;14.43;;
55720;SDS011;41626;53.098;6.168;2023-04-06T14:43:04;15.37;;;13.60;;
55720;SDS011;41626;53.098;6.168;2023-04-06T14:45:32;15.47;;;13.73;;
55720;SDS011;41626;53.098;6.168;2023-04-06T14:47:58;15.65;;;13.98;;